sensor_id;sensor_type;location;lat;lon;timestamp;pressure;altitude;pressure_sealevel;temperature;humidity
85386;BME280;75792;42.686;23.298;2024-02-21T00:01:45;95350.59;;;4.67;80.00
85386;BME280;75792;42.686;23.298;2024-02-21T00:04:10;95349.31;;;4.70;79.70
85386;BME280;75792;42.686;23.298;2024-02-21T00:06:36;95360.53;;;4.70;79.70
85386;BME280;75792;42.686;23.298;2024-02-21T00:09:01;95353.81;;;4.74;79.65
85386;BME280;75792;42.686;23.298;2024-02-21T00:11:27;95355.88;;;4.72;79.69
85386;BME280;75792;42.686;23.298;2024-02-21T00:13:53;95347.94;;;4.62;79.90
85386;BME280;75792;42.686;23.298;2024-02-21T00:16:18;95352.66;;;4.65;79.97
85386;BME280;75792;42.686;23.298;2024-02-21T00:18:44;95354.25;;;4.66;80.37
85386;BME280;75792;42.686;23.298;2024-02-21T00:21:09;95344.28;;;4.63;80.07
85386;BME280;75792;42.686;23.298;2024-02-21T00:23:40;95347.94;;;4.62;80.12
85386;BME280;75792;42.686;23.298;2024-02-21T00:26:05;95338.56;;;4.61;80.03
85386;BME280;75792;42.686;23.298;2024-02-21T00:28:31;95343.34;;;4.69;79.73
85386;BME280;75792;42.686;23.298;2024-02-21T00:30:56;95347.75;;;4.69;80.26
85386;BME280;75792;42.686;23.298;2024-02-21T00:33:21;95339.69;;;4.70;79.71
85386;BME280;75792;42.686;23.298;2024-02-21T00:35:47;95344.78;;;4.60;80.06
85386;BME280;75792;42.686;23.298;2024-02-21T00:38:12;95347.44;;;4.65;79.86
85386;BME280;75792;42.686;23.298;2024-02-21T00:40:37;95345.81;;;4.59;80.08
85386;BME280;75792;42.686;23.298;2024-02-21T00:43:03;95341.16;;;4.61;80.42
85386;BME280;75792;42.686;23.298;2024-02-21T00:45:28;95339.06;;;4.63;80.49
85386;BME280;75792;42.686;23.298;2024-02-21T00:47:53;95337.03;;;4.65;80.37
85386;BME280;75792;42.686;23.298;2024-02-21T00:50:19;95339.63;;;4.65;80.62
85386;BME280;75792;42.686;23.298;2024-02-21T00:52:44;95330.25;;;4.64;80.41
85386;BME280;75792;42.686;23.298;2024-02-21T00:55:10;95331.81;;;4.65;79.85
85386;BME280;75792;42.686;23.298;2024-02-21T00:57:35;95327.88;;;4.62;80.42
85386;BME280;75792;42.686;23.298;2024-02-21T01:00:02;95317.94;;;4.59;80.36
85386;BME280;75792;42.686;23.298;2024-02-21T01:02:28;95322.97;;;4.66;79.87
85386;BME280;75792;42.686;23.298;2024-02-21T01:04:56;95319.81;;;4.64;80.38
85386;BME280;75792;42.686;23.298;2024-02-21T01:07:22;95313.50;;;4.60;80.64
85386;BME280;75792;42.686;23.298;2024-02-21T01:09:47;95318.22;;;4.58;80.96
85386;BME280;75792;42.686;23.298;2024-02-21T01:12:13;95308.03;;;4.56;80.23
85386;BME280;75792;42.686;23.298;2024-02-21T01:14:38;95315.63;;;4.63;79.87
85386;BME280;75792;42.686;23.298;2024-02-21T01:17:03;95302.06;;;4.61;80.15
85386;BME280;75792;42.686;23.298;2024-02-21T01:19:31;95304.97;;;4.65;79.77
85386;BME280;75792;42.686;23.298;2024-02-21T01:21:56;95302.13;;;4.66;80.02
85386;BME280;75792;42.686;23.298;2024-02-21T01:24:21;95310.56;;;4.78;79.69
85386;BME280;75792;42.686;23.298;2024-02-21T01:26:47;95311.41;;;4.84;79.21
85386;BME280;75792;42.686;23.298;2024-02-21T01:29:12;95294.94;;;4.78;79.33
85386;BME280;75792;42.686;23.298;2024-02-21T01:31:38;95303.75;;;4.72;79.50
85386;BME280;75792;42.686;23.298;2024-02-21T01:34:03;95301.63;;;4.69;79.91
85386;BME280;75792;42.686;23.298;2024-02-21T01:36:28;95300.03;;;4.68;80.25
85386;BME280;75792;42.686;23.298;2024-02-21T01:38:54;95301.13;;;4.72;78.68
85386;BME280;75792;42.686;23.298;2024-02-21T01:41:19;95293.88;;;4.74;79.54
85386;BME280;75792;42.686;23.298;2024-02-21T01:43:44;95297.03;;;4.76;78.87
85386;BME280;75792;42.686;23.298;2024-02-21T01:46:10;95296.41;;;4.69;79.27
85386;BME280;75792;42.686;23.298;2024-02-21T01:48:36;95282.94;;;4.77;78.60
85386;BME280;75792;42.686;23.298;2024-02-21T01:51:03;95281.38;;;4.76;78.54
85386;BME280;75792;42.686;23.298;2024-02-21T01:53:38;95284.50;;;4.78;78.10
85386;BME280;75792;42.686;23.298;2024-02-21T01:56:06;95289.72;;;4.78;78.34
85386;BME280;75792;42.686;23.298;2024-02-21T01:58:33;95275.56;;;4.69;78.57
85386;BME280;75792;42.686;23.298;2024-02-21T02:01:02;95286.59;;;4.76;78.46
85386;BME280;75792;42.686;23.298;2024-02-21T02:03:27;95291.31;;;4.79;78.40
85386;BME280;75792;42.686;23.298;2024-02-21T02:05:53;95290.81;;;4.82;77.60
85386;BME280;75792;42.686;23.298;2024-02-21T02:08:19;95291.88;;;4.87;77.75
85386;BME280;75792;42.686;23.298;2024-02-21T02:10:45;95282.44;;;4.80;77.92
85386;BME280;75792;42.686;23.298;2024-02-21T02:13:11;95284.56;;;4.83;77.74
85386;BME280;75792;42.686;23.298;2024-02-21T02:15:44;95288.53;;;4.91;77.52
85386;BME280;75792;42.686;23.298;2024-02-21T02:18:13;95277.78;;;4.82;77.89
85386;BME280;75792;42.686;23.298;2024-02-21T02:20:40;95282.25;;;4.87;77.78
85386;BME280;75792;42.686;23.298;2024-02-21T02:25:43;95268.75;;;4.68;78.25
85386;BME280;75792;42.686;23.298;2024-02-21T02:28:09;95276.63;;;4.73;78.38
85386;BME280;75792;42.686;23.298;2024-02-21T02:30:37;95272.50;;;4.77;77.86
85386;BME280;75792;42.686;23.298;2024-02-21T02:33:06;95272.75;;;4.76;77.79
85386;BME280;75792;42.686;23.298;2024-02-21T02:35:32;95270.44;;;4.79;77.72
85386;BME280;75792;42.686;23.298;2024-02-21T02:37:58;95265.25;;;4.79;77.59
85386;BME280;75792;42.686;23.298;2024-02-21T02:40:23;95256.38;;;4.80;77.87
85386;BME280;75792;42.686;23.298;2024-02-21T02:42:49;95270.56;;;4.95;77.16
85386;BME280;75792;42.686;23.298;2024-02-21T02:45:15;95253.13;;;4.95;77.15
85386;BME280;75792;42.686;23.298;2024-02-21T02:47:41;95261.75;;;5.01;77.08
85386;BME280;75792;42.686;23.298;2024-02-21T02:50:07;95261.22;;;4.99;77.27
85386;BME280;75792;42.686;23.298;2024-02-21T02:52:33;95278.94;;;4.97;76.91
85386;BME280;75792;42.686;23.298;2024-02-21T02:54:58;95274.75;;;4.96;77.43
85386;BME280;75792;42.686;23.298;2024-02-21T02:57:24;95274.22;;;4.94;76.71
85386;BME280;75792;42.686;23.298;2024-02-21T02:59:52;95274.47;;;4.92;76.99
85386;BME280;75792;42.686;23.298;2024-02-21T03:02:18;95271.38;;;4.95;77.02
85386;BME280;75792;42.686;23.298;2024-02-21T03:04:44;95273.66;;;4.92;76.71
85386;BME280;75792;42.686;23.298;2024-02-21T03:07:10;95272.84;;;4.86;77.73
85386;BME280;75792;42.686;23.298;2024-02-21T03:09:39;95263.97;;;4.82;77.59
85386;BME280;75792;42.686;23.298;2024-02-21T03:12:05;95273.09;;;4.84;77.35
85386;BME280;75792;42.686;23.298;2024-02-21T03:14:33;95279.88;;;4.85;77.10
85386;BME280;75792;42.686;23.298;2024-02-21T03:16:59;95281.94;;;4.83;77.78
85386;BME280;75792;42.686;23.298;2024-02-21T03:19:25;95277.22;;;4.80;77.91
85386;BME280;75792;42.686;23.298;2024-02-21T03:21:51;95284.59;;;4.89;77.52
85386;BME280;75792;42.686;23.298;2024-02-21T03:24:17;95291.41;;;4.90;77.32
85386;BME280;75792;42.686;23.298;2024-02-21T03:26:42;95295.56;;;4.91;76.84
85386;BME280;75792;42.686;23.298;2024-02-21T03:29:09;95284.59;;;4.89;77.00
85386;BME280;75792;42.686;23.298;2024-02-21T03:31:35;95287.66;;;4.80;77.09
85386;BME280;75792;42.686;23.298;2024-02-21T03:34:00;95291.91;;;4.92;77.08
85386;BME280;75792;42.686;23.298;2024-02-21T03:36:26;95290.81;;;4.82;77.27
85386;BME280;75792;42.686;23.298;2024-02-21T03:38:51;95291.31;;;4.79;76.68
85386;BME280;75792;42.686;23.298;2024-02-21T03:41:16;95288.66;;;4.74;77.21
85386;BME280;75792;42.686;23.298;2024-02-21T03:43:42;95293.09;;;4.74;76.85
85386;BME280;75792;42.686;23.298;2024-02-21T03:46:07;95293.41;;;4.82;77.18
85386;BME280;75792;42.686;23.298;2024-02-21T03:48:33;95301.72;;;4.79;76.91
85386;BME280;75792;42.686;23.298;2024-02-21T03:50:58;95302.50;;;4.80;76.89
85386;BME280;75792;42.686;23.298;2024-02-21T03:53:24;95305.34;;;4.78;77.14
85386;BME280;75792;42.686;23.298;2024-02-21T03:55:49;95302.69;;;4.73;77.19
85386;BME280;75792;42.686;23.298;2024-02-21T03:58:15;95299.06;;;4.74;77.15
85386;BME280;75792;42.686;23.298;2024-02-21T04:00:40;95297.47;;;4.73;77.30
85386;BME280;75792;42.686;23.298;2024-02-21T04:03:06;95292.28;;;4.73;77.38
85386;BME280;75792;42.686;23.298;2024-02-21T04:05:32;95304.84;;;4.81;77.31
85386;BME280;75792;42.686;23.298;2024-02-21T04:07:58;95304.63;;;4.83;77.07
85386;BME280;75792;42.686;23.298;2024-02-21T04:10:23;95302.25;;;4.81;77.24
85386;BME280;75792;42.686;23.298;2024-02-21T04:12:49;95300.13;;;4.78;77.11
85386;BME280;75792;42.686;23.298;2024-02-21T04:15:16;95300.69;;;4.80;77.08
85386;BME280;75792;42.686;23.298;2024-02-21T04:17:41;95297.59;;;4.83;76.99
85386;BME280;75792;42.686;23.298;2024-02-21T04:20:14;95290.84;;;4.88;76.76
85386;BME280;75792;42.686;23.298;2024-02-21T04:22:42;95295.53;;;4.85;76.74
85386;BME280;75792;42.686;23.298;2024-02-21T04:25:07;95292.88;;;4.80;76.90
85386;BME280;75792;42.686;23.298;2024-02-21T04:27:33;95291.31;;;4.79;77.07
85386;BME280;75792;42.686;23.298;2024-02-21T04:29:58;95294.94;;;4.78;76.70
85386;BME280;75792;42.686;23.298;2024-02-21T04:32:24;95297.97;;;4.70;77.03
85386;BME280;75792;42.686;23.298;2024-02-21T04:34:49;95293.47;;;4.60;77.57
85386;BME280;75792;42.686;23.298;2024-02-21T04:37:15;95297.09;;;4.59;77.81
85386;BME280;75792;42.686;23.298;2024-02-21T04:39:40;95301.47;;;4.54;78.08
85386;BME280;75792;42.686;23.298;2024-02-21T04:42:06;95295.72;;;4.52;77.93
85386;BME280;75792;42.686;23.298;2024-02-21T04:44:31;95298.75;;;4.44;78.37
85386;BME280;75792;42.686;23.298;2024-02-21T04:46:56;95301.63;;;4.42;78.51
85386;BME280;75792;42.686;23.298;2024-02-21T04:49:22;95300.63;;;4.48;78.18
85386;BME280;75792;42.686;23.298;2024-02-21T04:51:47;95299.81;;;4.43;78.59
85386;BME280;75792;42.686;23.298;2024-02-21T04:54:13;95295.16;;;4.45;77.73
85386;BME280;75792;42.686;23.298;2024-02-21T04:56:38;95296.88;;;4.39;78.07
85386;BME280;75792;42.686;23.298;2024-02-21T04:59:03;95296.59;;;4.35;78.42
85386;BME280;75792;42.686;23.298;2024-02-21T05:01:29;95300.19;;;4.29;78.99
85386;BME280;75792;42.686;23.298;2024-02-21T05:03:54;95296.47;;;4.25;78.39
85386;BME280;75792;42.686;23.298;2024-02-21T05:06:20;95295.97;;;4.28;78.70
85386;BME280;75792;42.686;23.298;2024-02-21T05:08:45;95300.41;;;4.28;78.85
85386;BME280;75792;42.686;23.298;2024-02-21T05:11:10;95298.06;;;4.26;79.23
85386;BME280;75792;42.686;23.298;2024-02-21T05:13:36;95299.91;;;4.31;78.48
85386;BME280;75792;42.686;23.298;2024-02-21T05:16:01;95306.94;;;4.30;78.04
85386;BME280;75792;42.686;23.298;2024-02-21T05:18:28;95313.78;;;4.36;78.35
85386;BME280;75792;42.686;23.298;2024-02-21T05:20:53;95312.84;;;4.43;77.90
85386;BME280;75792;42.686;23.298;2024-02-21T05:23:19;95319.59;;;4.44;78.35
85386;BME280;75792;42.686;23.298;2024-02-21T05:25:44;95307.63;;;4.43;77.93
85386;BME280;75792;42.686;23.298;2024-02-21T05:28:10;95319.06;;;4.41;78.18
85386;BME280;75792;42.686;23.298;2024-02-21T05:30:35;95312.06;;;4.42;77.96
85386;BME280;75792;42.686;23.298;2024-02-21T05:33:07;95309.19;;;4.44;77.99
85386;BME280;75792;42.686;23.298;2024-02-21T05:35:32;95311.25;;;4.41;77.54
85386;BME280;75792;42.686;23.298;2024-02-21T05:37:58;95309.69;;;4.40;78.18
85386;BME280;75792;42.686;23.298;2024-02-21T05:40:24;95310.47;;;4.41;77.69
85386;BME280;75792;42.686;23.298;2024-02-21T05:42:50;95316.78;;;4.45;77.21
85386;BME280;75792;42.686;23.298;2024-02-21T05:45:17;95316.56;;;4.52;77.13
85386;BME280;75792;42.686;23.298;2024-02-21T05:47:42;95313.47;;;4.55;76.91
85386;BME280;75792;42.686;23.298;2024-02-21T05:50:08;95318.63;;;4.50;76.60
85386;BME280;75792;42.686;23.298;2024-02-21T05:52:34;95322.31;;;4.54;76.06
85386;BME280;75792;42.686;23.298;2024-02-21T05:54:59;95318.72;;;4.60;76.40
85386;BME280;75792;42.686;23.298;2024-02-21T05:57:24;95328.72;;;4.68;76.59
85386;BME280;75792;42.686;23.298;2024-02-21T05:59:50;95335.06;;;4.77;75.64
85386;BME280;75792;42.686;23.298;2024-02-21T06:02:15;95333.25;;;4.78;75.78
85386;BME280;75792;42.686;23.298;2024-02-21T06:04:41;95333.59;;;4.87;75.03
85386;BME280;75792;42.686;23.298;2024-02-21T06:07:07;95334.69;;;4.91;74.91
85386;BME280;75792;42.686;23.298;2024-02-21T06:09:33;95343.16;;;5.03;74.74
85386;BME280;75792;42.686;23.298;2024-02-21T06:11:58;95345.19;;;5.01;74.11
85386;BME280;75792;42.686;23.298;2024-02-21T06:14:24;95341.66;;;5.12;74.50
85386;BME280;75792;42.686;23.298;2024-02-21T06:16:49;95344.22;;;5.07;74.54
85386;BME280;75792;42.686;23.298;2024-02-21T06:19:15;95350.00;;;5.14;74.16
85386;BME280;75792;42.686;23.298;2024-02-21T06:21:40;95358.25;;;5.33;73.02
85386;BME280;75792;42.686;23.298;2024-02-21T06:24:06;95346.31;;;5.42;73.16
85386;BME280;75792;42.686;23.298;2024-02-21T06:26:31;95349.78;;;5.48;72.45
85386;BME280;75792;42.686;23.298;2024-02-21T06:28:56;95350.31;;;5.55;72.29
85386;BME280;75792;42.686;23.298;2024-02-21T06:31:22;95355.00;;;5.48;72.67
85386;BME280;75792;42.686;23.298;2024-02-21T06:33:48;95359.19;;;5.54;73.12
85386;BME280;75792;42.686;23.298;2024-02-21T06:36:13;95354.75;;;5.55;72.41
85386;BME280;75792;42.686;23.298;2024-02-21T06:38:38;95355.16;;;5.73;72.02
85386;BME280;75792;42.686;23.298;2024-02-21T06:41:04;95359.41;;;5.85;71.32
85386;BME280;75792;42.686;23.298;2024-02-21T06:43:29;95364.75;;;6.00;70.50
85386;BME280;75792;42.686;23.298;2024-02-21T06:45:55;95364.41;;;5.91;70.51
85386;BME280;75792;42.686;23.298;2024-02-21T06:48:22;95373.88;;;5.98;70.42
85386;BME280;75792;42.686;23.298;2024-02-21T06:50:47;95380.72;;;6.04;70.56
85386;BME280;75792;42.686;23.298;2024-02-21T06:53:16;95372.06;;;6.03;70.43
85386;BME280;75792;42.686;23.298;2024-02-21T06:55:42;95383.88;;;6.11;70.72
85386;BME280;75792;42.686;23.298;2024-02-21T06:58:08;95380.44;;;6.05;70.76
85386;BME280;75792;42.686;23.298;2024-02-21T07:00:36;95372.69;;;6.21;70.16
85386;BME280;75792;42.686;23.298;2024-02-21T07:03:02;95372.22;;;6.34;69.91
85386;BME280;75792;42.686;23.298;2024-02-21T07:05:27;95369.03;;;6.22;70.20
85386;BME280;75792;42.686;23.298;2024-02-21T07:07:53;95379.38;;;6.54;69.66
85386;BME280;75792;42.686;23.298;2024-02-21T07:10:18;95378.09;;;6.62;69.58
85386;BME280;75792;42.686;23.298;2024-02-21T07:12:44;95383.34;;;6.72;68.62
85386;BME280;75792;42.686;23.298;2024-02-21T07:15:09;95375.47;;;6.67;69.32
85386;BME280;75792;42.686;23.298;2024-02-21T07:17:34;95377.00;;;6.52;69.54
85386;BME280;75792;42.686;23.298;2024-02-21T07:20:00;95370.50;;;6.60;69.21
85386;BME280;75792;42.686;23.298;2024-02-21T07:22:26;95384.94;;;6.73;68.51
85386;BME280;75792;42.686;23.298;2024-02-21T07:24:51;95368.16;;;6.69;68.67
85386;BME280;75792;42.686;23.298;2024-02-21T07:27:17;95379.00;;;6.25;70.68
85386;BME280;75792;42.686;23.298;2024-02-21T07:29:42;95392.41;;;6.44;70.14
85386;BME280;75792;42.686;23.298;2024-02-21T07:32:07;95381.81;;;6.76;68.46
85386;BME280;75792;42.686;23.298;2024-02-21T07:34:33;95387.03;;;6.81;68.57
85386;BME280;75792;42.686;23.298;2024-02-21T07:36:58;95385.72;;;6.73;68.62
85386;BME280;75792;42.686;23.298;2024-02-21T07:39:24;95389.84;;;6.54;69.20
85386;BME280;75792;42.686;23.298;2024-02-21T07:41:49;95377.09;;;6.78;68.75
85386;BME280;75792;42.686;23.298;2024-02-21T07:44:15;95382.63;;;6.87;68.19
85386;BME280;75792;42.686;23.298;2024-02-21T07:46:41;95391.78;;;6.89;68.28
85386;BME280;75792;42.686;23.298;2024-02-21T07:49:06;95388.66;;;7.02;67.82
85386;BME280;75792;42.686;23.298;2024-02-21T07:51:31;95383.44;;;7.02;67.00
85386;BME280;75792;42.686;23.298;2024-02-21T07:53:57;95390.22;;;7.03;67.30
85386;BME280;75792;42.686;23.298;2024-02-21T07:56:22;95373.50;;;7.10;66.74
85386;BME280;75792;42.686;23.298;2024-02-21T07:58:48;95379.75;;;6.93;67.71
85386;BME280;75792;42.686;23.298;2024-02-21T08:01:18;95371.41;;;6.96;68.17
85386;BME280;75792;42.686;23.298;2024-02-21T08:03:47;95373.78;;;7.23;67.97
85386;BME280;75792;42.686;23.298;2024-02-21T08:06:13;95369.09;;;7.36;66.58
85386;BME280;75792;42.686;23.298;2024-02-21T08:08:39;95367.19;;;6.90;68.10
85386;BME280;75792;42.686;23.298;2024-02-21T08:11:05;95375.09;;;7.21;67.06
85386;BME280;75792;42.686;23.298;2024-02-21T08:13:30;95372.72;;;7.19;66.74
85386;BME280;75792;42.686;23.298;2024-02-21T08:15:56;95378.22;;;7.13;67.62
85386;BME280;75792;42.686;23.298;2024-02-21T08:18:22;95368.31;;;7.20;66.73
85386;BME280;75792;42.686;23.298;2024-02-21T08:20:48;95381.38;;;7.71;66.00
85386;BME280;75792;42.686;23.298;2024-02-21T08:23:19;95376.16;;;7.45;66.16
85386;BME280;75792;42.686;23.298;2024-02-21T08:25:45;95374.84;;;7.58;65.75
85386;BME280;75792;42.686;23.298;2024-02-21T08:28:10;95383.22;;;7.86;64.99
85386;BME280;75792;42.686;23.298;2024-02-21T08:30:36;95372.97;;;8.10;63.22
85386;BME280;75792;42.686;23.298;2024-02-21T08:33:01;95370.59;;;8.03;64.03
85386;BME280;75792;42.686;23.298;2024-02-21T08:35:26;95373.44;;;8.22;62.93
85386;BME280;75792;42.686;23.298;2024-02-21T08:37:52;95374.97;;;8.33;62.07
85386;BME280;75792;42.686;23.298;2024-02-21T08:40:17;95379.72;;;8.26;62.36
85386;BME280;75792;42.686;23.298;2024-02-21T08:42:46;95372.88;;;8.46;61.70
85386;BME280;75792;42.686;23.298;2024-02-21T08:45:11;95375.88;;;8.78;60.85
85386;BME280;75792;42.686;23.298;2024-02-21T08:47:39;95366.91;;;8.90;60.63
85386;BME280;75792;42.686;23.298;2024-02-21T08:50:05;95373.81;;;8.70;60.58
85386;BME280;75792;42.686;23.298;2024-02-21T08:52:31;95365.94;;;8.70;60.41
85386;BME280;75792;42.686;23.298;2024-02-21T08:54:57;95383.13;;;8.97;59.95
85386;BME280;75792;42.686;23.298;2024-02-21T08:57:22;95378.41;;;8.44;61.43
85386;BME280;75792;42.686;23.298;2024-02-21T08:59:47;95383.75;;;7.62;64.43
85386;BME280;75792;42.686;23.298;2024-02-21T09:02:13;95376.16;;;7.86;63.10
85386;BME280;75792;42.686;23.298;2024-02-21T09:04:41;95372.94;;;8.15;63.22
85386;BME280;75792;42.686;23.298;2024-02-21T09:07:06;95374.50;;;8.16;62.83
85386;BME280;75792;42.686;23.298;2024-02-21T09:09:32;95388.16;;;7.98;63.46
85386;BME280;75792;42.686;23.298;2024-02-21T09:11:58;95383.94;;;8.12;63.79
85386;BME280;75792;42.686;23.298;2024-02-21T09:14:31;95389.25;;;7.76;64.05
85386;BME280;75792;42.686;23.298;2024-02-21T09:16:56;95359.38;;;7.21;65.66
85386;BME280;75792;42.686;23.298;2024-02-21T09:19:21;95373.53;;;7.20;66.35
85386;BME280;75792;42.686;23.298;2024-02-21T09:21:47;95377.47;;;7.43;66.06
85386;BME280;75792;42.686;23.298;2024-02-21T09:24:13;95374.31;;;7.77;65.09
85386;BME280;75792;42.686;23.298;2024-02-21T09:26:38;95379.31;;;7.73;64.34
85386;BME280;75792;42.686;23.298;2024-02-21T09:29:04;95379.03;;;7.75;65.03
85386;BME280;75792;42.686;23.298;2024-02-21T09:31:29;95377.69;;;7.87;64.14
85386;BME280;75792;42.686;23.298;2024-02-21T09:33:55;95383.44;;;8.05;64.29
85386;BME280;75792;42.686;23.298;2024-02-21T09:36:20;95374.53;;;7.96;64.62
85386;BME280;75792;42.686;23.298;2024-02-21T09:38:46;95381.31;;;8.12;63.34
85386;BME280;75792;42.686;23.298;2024-02-21T09:41:21;95390.75;;;8.23;62.23
85386;BME280;75792;42.686;23.298;2024-02-21T09:43:50;95385.50;;;8.23;62.08
85386;BME280;75792;42.686;23.298;2024-02-21T09:46:19;95386.00;;;8.20;62.55
85386;BME280;75792;42.686;23.298;2024-02-21T09:51:32;95366.47;;;8.72;60.86
85386;BME280;75792;42.686;23.298;2024-02-21T09:54:01;95382.66;;;8.90;59.72
85386;BME280;75792;42.686;23.298;2024-02-21T09:56:28;95376.53;;;8.55;60.43
85386;BME280;75792;42.686;23.298;2024-02-21T09:58:54;95378.84;;;9.11;58.23
85386;BME280;75792;42.686;23.298;2024-02-21T10:01:19;95372.81;;;8.61;59.78
85386;BME280;75792;42.686;23.298;2024-02-21T10:03:44;95378.03;;;8.66;59.66
85386;BME280;75792;42.686;23.298;2024-02-21T10:06:10;95370.44;;;8.65;59.24
85386;BME280;75792;42.686;23.298;2024-02-21T10:08:35;95363.38;;;8.60;59.70
85386;BME280;75792;42.686;23.298;2024-02-21T10:11:00;95367.19;;;8.83;58.44
85386;BME280;75792;42.686;23.298;2024-02-21T10:13:29;95382.31;;;8.36;59.85
85386;BME280;75792;42.686;23.298;2024-02-21T10:16:06;95364.03;;;8.16;60.39
85386;BME280;75792;42.686;23.298;2024-02-21T10:18:33;95359.84;;;8.10;59.23
85386;BME280;75792;42.686;23.298;2024-02-21T10:21:06;95372.44;;;8.13;58.51
85386;BME280;75792;42.686;23.298;2024-02-21T10:23:45;95355.03;;;8.48;57.90
85386;BME280;75792;42.686;23.298;2024-02-21T10:26:11;95344.97;;;8.65;57.22
85386;BME280;75792;42.686;23.298;2024-02-21T10:28:37;95351.84;;;8.56;57.52
85386;BME280;75792;42.686;23.298;2024-02-21T10:31:10;95336.66;;;8.53;58.01
85386;BME280;75792;42.686;23.298;2024-02-21T10:33:37;95324.09;;;8.45;58.03
85386;BME280;75792;42.686;23.298;2024-02-21T10:36:09;95328.81;;;8.48;58.23
85386;BME280;75792;42.686;23.298;2024-02-21T10:38:36;95320.34;;;8.66;57.80
85386;BME280;75792;42.686;23.298;2024-02-21T10:41:03;95320.94;;;8.53;58.65
85386;BME280;75792;42.686;23.298;2024-02-21T10:43:37;95302.91;;;8.80;57.80
85386;BME280;75792;42.686;23.298;2024-02-21T10:46:05;95304.25;;;9.17;56.54
85386;BME280;75792;42.686;23.298;2024-02-21T10:48:42;95294.50;;;9.52;54.99
85386;BME280;75792;42.686;23.298;2024-02-21T10:54:06;95306.50;;;9.63;53.09
85386;BME280;75792;42.686;23.298;2024-02-21T10:56:38;95293.34;;;9.93;53.04
85386;BME280;75792;42.686;23.298;2024-02-21T10:59:06;95280.94;;;9.98;52.75
85386;BME280;75792;42.686;23.298;2024-02-21T11:01:32;95286.94;;;10.23;51.17
85386;BME280;75792;42.686;23.298;2024-02-21T11:03:59;95276.34;;;10.33;51.20
85386;BME280;75792;42.686;23.298;2024-02-21T11:06:27;95282.69;;;10.03;50.95
85386;BME280;75792;42.686;23.298;2024-02-21T11:09:29;95271.47;;;9.44;49.92
85386;BME280;75792;42.686;23.298;2024-02-21T11:11:56;95278.06;;;9.41;50.72
85386;BME280;75792;42.686;23.298;2024-02-21T11:14:26;95262.47;;;9.55;50.98
85386;BME280;75792;42.686;23.298;2024-02-21T11:16:52;95264.47;;;9.63;50.51
85386;BME280;75792;42.686;23.298;2024-02-21T11:19:22;95264.63;;;9.96;49.64
85386;BME280;75792;42.686;23.298;2024-02-21T11:21:48;95262.69;;;10.07;49.86
85386;BME280;75792;42.686;23.298;2024-02-21T11:24:14;95268.41;;;9.90;50.46
85386;BME280;75792;42.686;23.298;2024-02-21T11:26:50;95269.72;;;9.63;49.63
85386;BME280;75792;42.686;23.298;2024-02-21T11:29:23;95259.50;;;9.33;49.91
85386;BME280;75792;42.686;23.298;2024-02-21T11:31:49;95262.31;;;9.65;49.40
85386;BME280;75792;42.686;23.298;2024-02-21T11:34:17;95259.16;;;9.68;49.15
85386;BME280;75792;42.686;23.298;2024-02-21T11:36:48;95253.84;;;9.74;48.89
85386;BME280;75792;42.686;23.298;2024-02-21T11:39:20;95256.81;;;9.67;48.99
85386;BME280;75792;42.686;23.298;2024-02-21T11:41:47;95251.94;;;9.55;50.15
85386;BME280;75792;42.686;23.298;2024-02-21T11:44:13;95255.72;;;9.44;49.89
85386;BME280;75792;42.686;23.298;2024-02-21T11:46:38;95250.66;;;9.23;50.49
85386;BME280;75792;42.686;23.298;2024-02-21T11:49:04;95238.56;;;9.22;50.06
85386;BME280;75792;42.686;23.298;2024-02-21T11:51:30;95252.56;;;9.42;49.88
85386;BME280;75792;42.686;23.298;2024-02-21T11:53:55;95252.81;;;9.16;51.30
85386;BME280;75792;42.686;23.298;2024-02-21T11:56:20;95237.47;;;9.29;51.03
85386;BME280;75792;42.686;23.298;2024-02-21T11:58:47;95231.69;;;9.32;50.20
85386;BME280;75792;42.686;23.298;2024-02-21T12:01:13;95247.75;;;9.25;50.36
85386;BME280;75792;42.686;23.298;2024-02-21T12:03:39;95238.09;;;9.15;50.80
85386;BME280;75792;42.686;23.298;2024-02-21T12:06:07;95237.56;;;9.18;51.82
85386;BME280;75792;42.686;23.298;2024-02-21T12:08:42;95237.47;;;9.29;51.81
85386;BME280;75792;42.686;23.298;2024-02-21T12:11:19;95238.50;;;9.33;52.19
85386;BME280;75792;42.686;23.298;2024-02-21T12:13:46;95233.31;;;9.22;52.41
85386;BME280;75792;42.686;23.298;2024-02-21T12:16:14;95236.00;;;9.17;53.25
85386;BME280;75792;42.686;23.298;2024-02-21T12:18:39;95237.56;;;9.18;51.81
85386;BME280;75792;42.686;23.298;2024-02-21T12:21:05;95235.84;;;9.03;52.43
85386;BME280;75792;42.686;23.298;2024-02-21T12:23:30;95224.09;;;8.96;51.68
85386;BME280;75792;42.686;23.298;2024-02-21T12:25:56;95227.72;;;9.05;52.47
85386;BME280;75792;42.686;23.298;2024-02-21T12:28:21;95218.13;;;9.19;51.79
85386;BME280;75792;42.686;23.298;2024-02-21T12:30:47;95218.03;;;9.30;51.38
85386;BME280;75792;42.686;23.298;2024-02-21T12:33:13;95209.28;;;9.10;52.64
85386;BME280;75792;42.686;23.298;2024-02-21T12:35:39;95212.31;;;9.22;52.11
85386;BME280;75792;42.686;23.298;2024-02-21T12:38:05;95210.13;;;9.35;51.45
85386;BME280;75792;42.686;23.298;2024-02-21T12:40:30;95215.94;;;9.32;50.42
85386;BME280;75792;42.686;23.298;2024-02-21T12:43:01;95222.28;;;9.25;49.70
85386;BME280;75792;42.686;23.298;2024-02-21T12:45:28;95204.97;;;9.24;50.03
85386;BME280;75792;42.686;23.298;2024-02-21T12:47:53;95210.81;;;9.16;50.73
85386;BME280;75792;42.686;23.298;2024-02-21T12:50:19;95206.72;;;9.05;52.44
85386;BME280;75792;42.686;23.298;2024-02-21T12:52:45;95217.00;;;9.25;52.50
85386;BME280;75792;42.686;23.298;2024-02-21T12:55:10;95199.72;;;9.24;53.54
85386;BME280;75792;42.686;23.298;2024-02-21T12:57:37;95200.53;;;9.20;54.67
85386;BME280;75792;42.686;23.298;2024-02-21T13:00:03;95198.94;;;8.95;56.89
85386;BME280;75792;42.686;23.298;2024-02-21T13:02:29;95187.13;;;8.92;57.34
85386;BME280;75792;42.686;23.298;2024-02-21T13:04:54;95188.38;;;9.00;56.80